Scenic, South Dakota
Current Conditions -  °F | °C
As of 6:52 AM on Saturday 25 Oct 2014 (Local Time) from KRAP Reporting Station
Clear Clear  
Wind Chill: 31°   Ceiling: Unl
Heat Index: 35°   Visibility: 10mi
Dew Point: 29°   Wind: 5mph
Humidity: 78%   Direction: 300°WNW
Pressure: 30.16"   Gusts: NA
Location:  43.78°N, 102.56°W
Report Text: KRAP 251252Z 30004KT 10SM CLR 02/M02 A3016 RMK AO2 SLP224 T00171017
Loading
Personal Weather Stations






























Interactive Weather Map
Tropical Storm Tracking
New forecast layout! Learn more

10-Day Weather Forecast

Advertisements
Track Severe Weather on mobile